Chicago, Illinois
Traffic Map
Current Weather Conditions
Chicago, Illinois
Few Clouds
Few Clouds
70°
Feels Like: 70°
Wind Chill: 70° Ceiling: Unl
Heat Index: 70° Visibility: 10mi
Dew Point: 54° Wind: 9mph
Humidity: 57% Direction: 60° (ENE)
Pressure: 30.14in Gusts: 0mph
Raw Report DataKMDW 181751Z 06008KT 10SM FEW035 21/12 A3014 RMK AO2 SLP202 T02110122 10217 20122 55002
Traffic Incident Summary
Active as of:
Severity:
Category:
InformationThere was an issue retrieving the traffic information for this location. Please try a different location or try again shortly.
Advertisements
Track Severe Weather on mobile